Minneapolis, Minnesota
Traffic Map
Current Weather Conditions
Minneapolis, Minnesota
Few Clouds
Few Clouds
44°
Feels Like: 39°
Wind Chill: 39° Ceiling: Unl
Heat Index: 44° Visibility: 10mi
Dew Point: 25° Wind: 9mph
Humidity: 47% Direction: 90° (E)
Pressure: 30.08in Gusts: 0mph
Raw Report DataKMSP 230653Z 09008KT 10SM FEW300 07/M04 A3008 RMK AO2 SLP189 T00671039
Traffic Incident Summary
Active as of:
Severity:
Category:
InformationThere was an issue retrieving the traffic information for this location. Please try a different location or try again shortly.
Advertisements
At Last! Intellicast now available for iPhone and Android